createdAt,value
2022-08-17T00:04:51.815Z,15.00
2022-08-17T00:09:55.323Z,16.20
2022-08-17T00:14:58.617Z,13.70
2022-08-17T00:20:02.068Z,13.90
2022-08-17T00:25:13.243Z,13.00
2022-08-17T00:30:16.656Z,14.30
2022-08-17T00:35:23.939Z,14.20
2022-08-17T00:40:27.684Z,13.90
2022-08-17T00:45:49.442Z,15.10
2022-08-17T00:51:43.631Z,14.00
2022-08-17T00:56:52.117Z,20.60
2022-08-17T01:01:55.474Z,11.80
2022-08-17T01:07:01.878Z,13.60
2022-08-17T01:12:09.282Z,15.60
2022-08-17T01:17:13.397Z,15.30
2022-08-17T01:22:22.103Z,15.30
2022-08-17T01:27:27.085Z,13.40
2022-08-17T01:32:31.650Z,14.50
2022-08-17T01:37:39.915Z,14.30
2022-08-17T01:42:56.375Z,16.60
2022-08-17T01:48:01.394Z,13.90
2022-08-17T01:53:17.232Z,14.90
2022-08-17T01:58:22.036Z,15.70
2022-08-17T02:03:26.101Z,17.60
2022-08-17T02:08:38.884Z,13.50
2022-08-17T02:14:02.543Z,13.50
2022-08-17T02:19:12.467Z,14.70
2022-08-17T02:24:59.993Z,17.60
2022-08-17T02:29:56.506Z,15.90
2022-08-17T02:35:00.938Z,16.00
2022-08-17T02:40:06.934Z,14.40
2022-08-17T02:45:19.542Z,16.20
2022-08-17T02:50:24.806Z,17.00
2022-08-17T02:55:36.811Z,13.90
2022-08-17T03:00:46.570Z,17.10
2022-08-17T03:05:51.723Z,16.70
2022-08-17T03:10:55.443Z,14.10
2022-08-17T03:15:59.226Z,14.70
2022-08-17T03:21:04.851Z,18.70
2022-08-17T03:26:15.240Z,15.20
2022-08-17T03:31:19.139Z,14.80
2022-08-17T03:36:22.590Z,17.80
2022-08-17T03:41:25.959Z,25.70
2022-08-17T03:46:47.913Z,15.20
2022-08-17T03:52:10.693Z,15.60
2022-08-17T03:57:14.127Z,16.60
2022-08-17T04:02:31.691Z,17.60
2022-08-17T04:07:35.297Z,19.50
2022-08-17T04:12:49.946Z,18.80
2022-08-17T04:17:53.951Z,17.90
2022-08-17T04:23:02.805Z,15.70
2022-08-17T04:28:12.524Z,16.70
2022-08-17T04:33:26.836Z,17.40
2022-08-17T04:38:34.070Z,21.20
2022-08-17T04:43:40.576Z,18.60
2022-08-17T04:48:48.028Z,21.60
2022-08-17T04:54:02.919Z,17.70
2022-08-17T04:59:15.633Z,18.20
2022-08-17T05:04:33.283Z,18.90
2022-08-17T05:09:38.285Z,22.10
2022-08-17T05:14:42.375Z,18.50
2022-08-17T05:19:50.019Z,21.40
2022-08-17T05:24:55.547Z,18.50
2022-08-17T05:29:59.174Z,18.40
2022-08-17T05:35:02.793Z,19.50
2022-08-17T05:40:07.663Z,18.00
2022-08-17T05:45:12.010Z,16.60
2022-08-17T05:50:29.952Z,19.10
2022-08-17T05:56:11.551Z,18.80
2022-08-17T06:01:48.129Z,19.70
2022-08-17T06:07:12.737Z,18.90
2022-08-17T06:12:33.452Z,19.80
2022-08-17T06:17:38.457Z,19.10
2022-08-17T06:22:52.373Z,20.30
2022-08-17T06:28:14.419Z,22.10
2022-08-17T06:33:34.533Z,22.30
2022-08-17T06:38:56.476Z,17.30
2022-08-17T06:44:07.229Z,18.80
2022-08-17T06:49:26.650Z,21.80
2022-08-17T06:55:17.790Z,18.40
2022-08-17T07:00:36.200Z,20.80
2022-08-17T07:06:06.785Z,19.80
2022-08-17T07:11:38.987Z,17.40
2022-08-17T07:16:49.157Z,19.90
2022-08-17T07:22:14.392Z,21.10
2022-08-17T07:27:27.874Z,20.90
2022-08-17T07:32:40.974Z,18.50
2022-08-17T07:38:25.859Z,18.10
2022-08-17T07:43:52.825Z,20.50
2022-08-17T07:49:17.235Z,19.00
2022-08-17T07:54:30.469Z,17.30
2022-08-17T07:59:40.778Z,17.00
2022-08-17T08:05:01.459Z,17.90
2022-08-17T08:10:17.047Z,16.00
2022-08-17T08:15:35.438Z,18.20
2022-08-17T08:20:54.128Z,14.70
2022-08-17T08:26:38.992Z,13.10
2022-08-17T08:32:13.801Z,15.60
2022-08-17T08:37:48.591Z,14.20
2022-08-17T08:43:22.649Z,11.60
2022-08-17T08:49:02.653Z,16.50
2022-08-17T08:54:55.657Z,15.10
2022-08-17T09:00:22.949Z,14.80
2022-08-17T09:06:33.325Z,12.40
2022-08-17T09:12:05.218Z,12.70
2022-08-17T09:17:20.219Z,11.90
2022-08-17T09:22:39.072Z,11.60
2022-08-17T09:28:03.876Z,11.10
2022-08-17T09:33:11.146Z,12.20
2022-08-17T09:39:00.177Z,14.40
2022-08-17T09:44:42.397Z,11.60
2022-08-17T09:51:05.223Z,14.30
2022-08-17T09:56:24.769Z,14.40
2022-08-17T10:01:47.030Z,11.70
2022-08-17T10:07:17.945Z,11.10
2022-08-17T10:12:53.136Z,12.10
2022-08-17T10:18:34.762Z,8.90
2022-08-17T10:23:56.683Z,10.80
2022-08-17T10:29:12.918Z,11.10
2022-08-17T10:34:38.806Z,13.10
2022-08-17T10:40:14.075Z,10.00
2022-08-17T10:45:49.889Z,8.10
2022-08-17T10:51:39.489Z,10.70
2022-08-17T10:56:50.528Z,14.30
2022-08-17T11:02:20.418Z,10.70
2022-08-17T11:07:35.604Z,10.80
2022-08-17T11:13:15.169Z,12.20
2022-08-17T11:18:52.888Z,9.40
2022-08-17T11:24:18.093Z,8.20
2022-08-17T11:29:26.945Z,10.40
2022-08-17T11:34:34.188Z,10.10
2022-08-17T11:40:05.910Z,9.10
2022-08-17T11:45:32.346Z,9.20
2022-08-17T11:51:17.677Z,10.90
2022-08-17T11:56:51.403Z,12.10
2022-08-17T12:01:57.301Z,11.50
2022-08-17T12:07:23.429Z,10.20
2022-08-17T12:12:36.253Z,9.20
2022-08-17T12:17:52.230Z,9.90
2022-08-17T12:23:25.475Z,9.40
2022-08-17T12:28:36.979Z,9.50
2022-08-17T12:33:46.240Z,9.00
2022-08-17T12:39:14.630Z,9.60
2022-08-17T12:44:26.751Z,8.20
2022-08-17T12:49:41.320Z,9.20
2022-08-17T12:54:55.084Z,8.70
2022-08-17T13:00:18.017Z,8.80
2022-08-17T13:05:37.691Z,10.00
2022-08-17T13:10:41.590Z,9.70
2022-08-17T13:16:30.550Z,9.40
2022-08-17T13:21:38.146Z,9.40
2022-08-17T13:26:46.388Z,10.50
2022-08-17T13:32:19.747Z,9.50
2022-08-17T13:37:30.284Z,8.90
2022-08-17T13:42:51.859Z,10.20
2022-08-17T13:48:13.761Z,8.30
2022-08-17T13:53:37.434Z,8.30
2022-08-17T13:58:56.841Z,9.40
2022-08-17T14:04:10.886Z,8.70
2022-08-17T14:09:16.730Z,10.10
2022-08-17T14:14:23.469Z,8.60
2022-08-17T14:19:27.094Z,8.70
2022-08-17T14:24:35.533Z,9.50
2022-08-17T14:29:41.380Z,9.00
2022-08-17T14:34:46.300Z,9.10
2022-08-17T14:39:49.809Z,8.40
2022-08-17T14:44:56.015Z,9.20
2022-08-17T14:49:59.850Z,10.90
2022-08-17T14:55:03.729Z,10.70
2022-08-17T15:00:09.873Z,8.70
2022-08-17T15:05:16.837Z,8.50
2022-08-17T15:10:21.417Z,8.30
2022-08-17T15:15:25.245Z,9.20
2022-08-17T15:20:30.590Z,7.80
2022-08-17T15:25:34.204Z,9.20
2022-08-17T15:30:38.030Z,9.70
2022-08-17T15:35:43.056Z,9.70
2022-08-17T15:40:51.308Z,8.50
2022-08-17T15:46:20.632Z,13.00
2022-08-17T15:51:35.205Z,11.30
2022-08-17T15:56:40.155Z,11.10
2022-08-17T16:03:15.264Z,11.10
2022-08-17T16:07:07.564Z,10.20
2022-08-17T16:12:19.481Z,10.00
2022-08-17T16:17:29.643Z,14.20
2022-08-17T16:22:46.210Z,10.70
2022-08-17T16:27:53.740Z,8.20
2022-08-17T16:33:00.397Z,13.30
2022-08-17T16:38:03.752Z,11.90
2022-08-17T16:43:12.318Z,11.40
2022-08-17T16:48:16.241Z,11.30
2022-08-17T16:53:20.689Z,11.70
2022-08-17T16:58:24.321Z,11.20
2022-08-17T17:03:31.110Z,12.00
2022-08-17T17:08:55.784Z,13.00
2022-08-17T17:14:04.032Z,12.20
2022-08-17T17:19:34.897Z,14.40
2022-08-17T17:25:11.070Z,16.60
2022-08-17T17:30:25.145Z,18.90
2022-08-17T17:35:45.519Z,13.80
2022-08-17T17:40:55.117Z,12.90
2022-08-17T17:46:27.040Z,13.80
2022-08-17T17:52:09.201Z,11.80
2022-08-17T17:57:21.634Z,11.20
2022-08-17T18:02:53.239Z,12.10
2022-08-17T18:08:34.757Z,11.80
2022-08-17T18:14:19.522Z,13.70
2022-08-17T18:19:27.112Z,13.50
2022-08-17T18:24:38.721Z,10.10
2022-08-17T18:29:47.294Z,12.50
2022-08-17T18:35:27.967Z,14.60
2022-08-17T18:40:37.814Z,12.90
2022-08-17T18:45:54.333Z,11.10
2022-08-17T18:51:40.695Z,12.00
2022-08-17T18:57:00.241Z,10.10
2022-08-17T19:02:32.459Z,10.20
2022-08-17T19:07:47.737Z,11.30
2022-08-17T19:13:14.121Z,9.00
2022-08-17T19:18:38.331Z,10.60
2022-08-17T19:23:55.774Z,10.80
2022-08-17T19:29:10.721Z,10.80
2022-08-17T19:34:17.447Z,11.60
2022-08-17T19:40:07.773Z,14.30
2022-08-17T19:45:40.098Z,12.90
2022-08-17T19:51:39.123Z,9.50
2022-08-17T19:57:35.061Z,9.10
2022-08-17T20:02:53.606Z,12.40
2022-08-17T20:08:13.425Z,12.90
2022-08-17T20:13:43.258Z,14.80
2022-08-17T20:19:32.932Z,17.00
2022-08-17T20:24:50.706Z,16.40
2022-08-17T20:30:33.282Z,13.90
2022-08-17T20:35:40.645Z,12.30
2022-08-17T20:41:24.512Z,12.70
2022-08-17T20:46:36.630Z,16.40
2022-08-17T20:52:00.801Z,15.20
2022-08-17T20:57:09.244Z,11.30
2022-08-17T21:02:24.528Z,14.20
2022-08-17T21:07:42.674Z,11.00
2022-08-17T21:12:59.272Z,14.70
2022-08-17T21:18:34.624Z,18.10
2022-08-17T21:24:02.201Z,12.30
2022-08-17T21:29:30.246Z,12.00
2022-08-17T21:34:43.339Z,11.50
2022-08-17T21:39:58.468Z,12.00
2022-08-17T21:45:19.592Z,12.30
2022-08-17T21:50:25.905Z,15.00
2022-08-17T21:55:37.408Z,15.40
2022-08-17T22:00:40.825Z,15.50
2022-08-17T22:05:46.453Z,12.00
2022-08-17T22:10:52.023Z,11.90
2022-08-17T22:16:28.578Z,15.50
2022-08-17T22:21:33.083Z,15.20
2022-08-17T22:27:21.835Z,17.00
2022-08-17T22:32:44.180Z,14.00
2022-08-17T22:37:47.705Z,12.00
2022-08-17T22:42:51.265Z,14.50
2022-08-17T22:47:57.838Z,12.80
2022-08-17T22:53:35.458Z,14.50
2022-08-17T22:59:17.070Z,11.40
2022-08-17T23:04:38.416Z,11.90
2022-08-17T23:09:41.810Z,12.00
2022-08-17T23:14:47.180Z,12.90
2022-08-17T23:19:50.561Z,13.70
2022-08-17T23:24:54.337Z,13.80
2022-08-17T23:29:58.954Z,13.10
2022-08-17T23:35:02.362Z,12.80
2022-08-17T23:40:06.726Z,14.80
2022-08-17T23:45:10.447Z,12.20
2022-08-17T23:50:15.778Z,15.70
2022-08-17T23:55:20.537Z,14.70
